sensor_id;sensor_type;location;lat;lon;timestamp;temperature;humidity
32215;DHT22;18708;53.124;23.190;2022-12-07T00:00:42;-0.50;99.90
32215;DHT22;18708;53.124;23.190;2022-12-07T00:03:08;-0.50;99.90
32215;DHT22;18708;53.124;23.190;2022-12-07T00:05:33;-0.50;99.90
32215;DHT22;18708;53.124;23.190;2022-12-07T00:07:59;-0.50;99.90
32215;DHT22;18708;53.124;23.190;2022-12-07T00:10:24;-0.60;99.90
32215;DHT22;18708;53.124;23.190;2022-12-07T00:12:50;-0.50;99.90
32215;DHT22;18708;53.124;23.190;2022-12-07T00:15:15;-0.50;99.90
32215;DHT22;18708;53.124;23.190;2022-12-07T00:17:41;-0.60;99.90
32215;DHT22;18708;53.124;23.190;2022-12-07T00:20:07;-0.50;99.90
32215;DHT22;18708;53.124;23.190;2022-12-07T00:22:33;-0.50;99.90
32215;DHT22;18708;53.124;23.190;2022-12-07T00:24:58;-0.50;99.90
32215;DHT22;18708;53.124;23.190;2022-12-07T00:27:24;-0.60;99.90
32215;DHT22;18708;53.124;23.190;2022-12-07T00:29:49;-0.60;99.90
32215;DHT22;18708;53.124;23.190;2022-12-07T00:32:15;-0.60;99.90
32215;DHT22;18708;53.124;23.190;2022-12-07T00:34:40;-0.50;99.90
32215;DHT22;18708;53.124;23.190;2022-12-07T00:37:06;-0.50;99.90
32215;DHT22;18708;53.124;23.190;2022-12-07T00:39:31;-0.60;99.90
32215;DHT22;18708;53.124;23.190;2022-12-07T00:41:57;-0.50;99.90
32215;DHT22;18708;53.124;23.190;2022-12-07T00:44:23;-0.60;99.90
32215;DHT22;18708;53.124;23.190;2022-12-07T00:46:48;-0.60;99.90
32215;DHT22;18708;53.124;23.190;2022-12-07T00:49:14;-0.60;99.90
32215;DHT22;18708;53.124;23.190;2022-12-07T00:51:39;-0.60;99.90
32215;DHT22;18708;53.124;23.190;2022-12-07T00:54:05;-0.60;99.90
32215;DHT22;18708;53.124;23.190;2022-12-07T00:56:31;-0.60;99.90
32215;DHT22;18708;53.124;23.190;2022-12-07T00:58:59;-0.60;99.90
32215;DHT22;18708;53.124;23.190;2022-12-07T01:01:28;-0.60;99.90
32215;DHT22;18708;53.124;23.190;2022-12-07T01:03:54;-0.60;99.90
32215;DHT22;18708;53.124;23.190;2022-12-07T01:06:22;-0.60;99.90
32215;DHT22;18708;53.124;23.190;2022-12-07T01:08:48;-0.60;99.90
32215;DHT22;18708;53.124;23.190;2022-12-07T01:11:16;-0.60;99.90
32215;DHT22;18708;53.124;23.190;2022-12-07T01:13:43;-0.60;99.90
32215;DHT22;18708;53.124;23.190;2022-12-07T01:16:14;-0.60;99.90
32215;DHT22;18708;53.124;23.190;2022-12-07T01:18:40;-0.60;99.90
32215;DHT22;18708;53.124;23.190;2022-12-07T01:21:12;-0.60;99.90
32215;DHT22;18708;53.124;23.190;2022-12-07T01:23:38;-0.60;99.90
32215;DHT22;18708;53.124;23.190;2022-12-07T01:26:11;-0.60;99.90
32215;DHT22;18708;53.124;23.190;2022-12-07T01:28:37;-0.60;99.90
32215;DHT22;18708;53.124;23.190;2022-12-07T01:31:08;-0.60;99.90
32215;DHT22;18708;53.124;23.190;2022-12-07T01:33:36;-0.60;99.90
32215;DHT22;18708;53.124;23.190;2022-12-07T01:36:15;-0.60;99.90
32215;DHT22;18708;53.124;23.190;2022-12-07T01:38:41;-0.60;99.90
32215;DHT22;18708;53.124;23.190;2022-12-07T01:41:07;-0.60;99.90
32215;DHT22;18708;53.124;23.190;2022-12-07T01:43:34;-0.60;99.90
32215;DHT22;18708;53.124;23.190;2022-12-07T01:46:01;-0.60;99.90
32215;DHT22;18708;53.124;23.190;2022-12-07T01:48:41;-0.60;99.90
32215;DHT22;18708;53.124;23.190;2022-12-07T01:51:12;-0.60;99.90
32215;DHT22;18708;53.124;23.190;2022-12-07T01:53:42;-0.60;99.90
32215;DHT22;18708;53.124;23.190;2022-12-07T01:56:11;-0.60;99.90
32215;DHT22;18708;53.124;23.190;2022-12-07T01:58:41;-0.60;99.90
32215;DHT22;18708;53.124;23.190;2022-12-07T02:01:06;-0.60;99.90
32215;DHT22;18708;53.124;23.190;2022-12-07T02:03:39;-0.60;99.90
32215;DHT22;18708;53.124;23.190;2022-12-07T02:06:05;-0.60;99.90
32215;DHT22;18708;53.124;23.190;2022-12-07T02:08:32;-0.60;99.90
32215;DHT22;18708;53.124;23.190;2022-12-07T02:10:57;-0.60;99.90
32215;DHT22;18708;53.124;23.190;2022-12-07T02:13:25;-0.60;99.90
32215;DHT22;18708;53.124;23.190;2022-12-07T02:18:50;-0.60;99.90
32215;DHT22;18708;53.124;23.190;2022-12-07T02:21:37;-0.50;99.90
32215;DHT22;18708;53.124;23.190;2022-12-07T02:27:10;-0.50;99.90
32215;DHT22;18708;53.124;23.190;2022-12-07T02:35:07;-0.50;99.90
32215;DHT22;18708;53.124;23.190;2022-12-07T02:37:48;-0.50;99.90
32215;DHT22;18708;53.124;23.190;2022-12-07T02:42:50;-0.50;99.90
32215;DHT22;18708;53.124;23.190;2022-12-07T02:45:21;-0.50;99.90
32215;DHT22;18708;53.124;23.190;2022-12-07T02:47:51;-0.50;99.90
32215;DHT22;18708;53.124;23.190;2022-12-07T02:50:20;-0.40;99.90
32215;DHT22;18708;53.124;23.190;2022-12-07T02:52:45;-0.50;99.90
32215;DHT22;18708;53.124;23.190;2022-12-07T02:55:12;-0.50;99.90
32215;DHT22;18708;53.124;23.190;2022-12-07T03:00:17;-0.40;99.90
32215;DHT22;18708;53.124;23.190;2022-12-07T03:02:53;-0.50;99.90
32215;DHT22;18708;53.124;23.190;2022-12-07T03:11:14;-0.40;99.90
32215;DHT22;18708;53.124;23.190;2022-12-07T03:18:55;-0.40;99.90
32215;DHT22;18708;53.124;23.190;2022-12-07T03:24:26;-0.40;99.90
32215;DHT22;18708;53.124;23.190;2022-12-07T03:26:58;-0.30;99.90
32215;DHT22;18708;53.124;23.190;2022-12-07T03:29:35;-0.30;99.90
32215;DHT22;18708;53.124;23.190;2022-12-07T03:32:06;-0.30;99.90
32215;DHT22;18708;53.124;23.190;2022-12-07T03:37:19;-0.30;99.90
32215;DHT22;18708;53.124;23.190;2022-12-07T03:42:33;-0.30;99.90
32215;DHT22;18708;53.124;23.190;2022-12-07T03:45:00;-0.30;99.90
32215;DHT22;18708;53.124;23.190;2022-12-07T03:47:31;-0.30;99.90
32215;DHT22;18708;53.124;23.190;2022-12-07T03:52:45;-0.30;99.90
32215;DHT22;18708;53.124;23.190;2022-12-07T03:57:53;-0.30;99.90
32215;DHT22;18708;53.124;23.190;2022-12-07T04:00:20;-0.30;99.90
32215;DHT22;18708;53.124;23.190;2022-12-07T04:02:45;-0.30;99.90
32215;DHT22;18708;53.124;23.190;2022-12-07T04:05:12;-0.30;99.90
32215;DHT22;18708;53.124;23.190;2022-12-07T04:07:38;-0.30;99.90
32215;DHT22;18708;53.124;23.190;2022-12-07T04:10:04;-0.30;99.90
32215;DHT22;18708;53.124;23.190;2022-12-07T04:12:30;-0.30;99.90
32215;DHT22;18708;53.124;23.190;2022-12-07T04:14:58;-0.30;99.90
32215;DHT22;18708;53.124;23.190;2022-12-07T04:17:24;-0.30;99.90
32215;DHT22;18708;53.124;23.190;2022-12-07T04:19:50;-0.30;99.90
32215;DHT22;18708;53.124;23.190;2022-12-07T04:22:15;-0.30;99.90
32215;DHT22;18708;53.124;23.190;2022-12-07T04:24:41;-0.20;99.90
32215;DHT22;18708;53.124;23.190;2022-12-07T04:27:06;-0.20;99.90
32215;DHT22;18708;53.124;23.190;2022-12-07T04:29:32;-0.20;99.90
32215;DHT22;18708;53.124;23.190;2022-12-07T04:31:58;-0.20;99.90
32215;DHT22;18708;53.124;23.190;2022-12-07T04:34:23;-0.20;99.90
32215;DHT22;18708;53.124;23.190;2022-12-07T04:36:49;-0.20;99.90
32215;DHT22;18708;53.124;23.190;2022-12-07T04:39:23;-0.20;99.90
32215;DHT22;18708;53.124;23.190;2022-12-07T04:41:50;-0.20;99.90
32215;DHT22;18708;53.124;23.190;2022-12-07T04:44:16;-0.20;99.90
32215;DHT22;18708;53.124;23.190;2022-12-07T04:46:42;-0.20;99.90
32215;DHT22;18708;53.124;23.190;2022-12-07T04:49:09;-0.20;99.90
32215;DHT22;18708;53.124;23.190;2022-12-07T04:51:35;-0.20;99.90
32215;DHT22;18708;53.124;23.190;2022-12-07T04:54:00;-0.20;99.90
32215;DHT22;18708;53.124;23.190;2022-12-07T04:56:26;-0.20;99.90
32215;DHT22;18708;53.124;23.190;2022-12-07T04:58:53;-0.10;99.90
32215;DHT22;18708;53.124;23.190;2022-12-07T05:01:20;-0.10;99.90
32215;DHT22;18708;53.124;23.190;2022-12-07T05:03:45;-0.10;99.90
32215;DHT22;18708;53.124;23.190;2022-12-07T05:06:12;-0.10;99.90
32215;DHT22;18708;53.124;23.190;2022-12-07T05:08:38;-0.10;99.90
32215;DHT22;18708;53.124;23.190;2022-12-07T05:11:04;-0.10;99.90
32215;DHT22;18708;53.124;23.190;2022-12-07T05:13:30;-0.10;99.90
32215;DHT22;18708;53.124;23.190;2022-12-07T05:15:56;-0.10;99.90
32215;DHT22;18708;53.124;23.190;2022-12-07T05:18:21;-0.10;99.90
32215;DHT22;18708;53.124;23.190;2022-12-07T05:20:47;0.00;99.90
32215;DHT22;18708;53.124;23.190;2022-12-07T05:23:13;-0.10;99.90
32215;DHT22;18708;53.124;23.190;2022-12-07T05:25:38;0.00;99.90
32215;DHT22;18708;53.124;23.190;2022-12-07T05:28:05;0.00;99.90
32215;DHT22;18708;53.124;23.190;2022-12-07T05:30:31;0.00;99.90
32215;DHT22;18708;53.124;23.190;2022-12-07T05:32:56;0.00;99.90
32215;DHT22;18708;53.124;23.190;2022-12-07T05:35:22;0.00;99.90
32215;DHT22;18708;53.124;23.190;2022-12-07T05:37:47;0.00;99.90
32215;DHT22;18708;53.124;23.190;2022-12-07T05:40:14;0.00;99.90
32215;DHT22;18708;53.124;23.190;2022-12-07T05:42:40;0.00;99.90
32215;DHT22;18708;53.124;23.190;2022-12-07T05:45:07;0.00;99.90
32215;DHT22;18708;53.124;23.190;2022-12-07T05:47:32;0.00;99.90
32215;DHT22;18708;53.124;23.190;2022-12-07T05:49:58;0.00;99.90
32215;DHT22;18708;53.124;23.190;2022-12-07T05:52:24;0.00;99.90
32215;DHT22;18708;53.124;23.190;2022-12-07T05:54:49;0.00;99.90
32215;DHT22;18708;53.124;23.190;2022-12-07T05:57:15;0.10;99.90
32215;DHT22;18708;53.124;23.190;2022-12-07T05:59:41;0.10;99.90
32215;DHT22;18708;53.124;23.190;2022-12-07T06:02:12;0.10;99.90
32215;DHT22;18708;53.124;23.190;2022-12-07T06:04:41;0.10;99.90
32215;DHT22;18708;53.124;23.190;2022-12-07T06:07:07;0.10;99.90
32215;DHT22;18708;53.124;23.190;2022-12-07T06:09:33;0.10;99.90
32215;DHT22;18708;53.124;23.190;2022-12-07T06:11:59;0.10;99.90
32215;DHT22;18708;53.124;23.190;2022-12-07T06:14:44;0.10;99.90
32215;DHT22;18708;53.124;23.190;2022-12-07T06:17:10;0.10;99.90
32215;DHT22;18708;53.124;23.190;2022-12-07T06:19:37;0.20;99.90
32215;DHT22;18708;53.124;23.190;2022-12-07T06:22:03;0.20;99.90
32215;DHT22;18708;53.124;23.190;2022-12-07T06:24:30;0.20;99.90
32215;DHT22;18708;53.124;23.190;2022-12-07T06:26:56;0.20;99.90
32215;DHT22;18708;53.124;23.190;2022-12-07T06:29:22;0.20;99.90
32215;DHT22;18708;53.124;23.190;2022-12-07T06:31:47;0.20;99.90
32215;DHT22;18708;53.124;23.190;2022-12-07T06:34:15;0.20;99.90
32215;DHT22;18708;53.124;23.190;2022-12-07T06:36:42;0.20;99.90
32215;DHT22;18708;53.124;23.190;2022-12-07T06:39:08;0.20;99.90
32215;DHT22;18708;53.124;23.190;2022-12-07T06:41:38;0.30;99.90
32215;DHT22;18708;53.124;23.190;2022-12-07T06:44:05;0.30;99.90
32215;DHT22;18708;53.124;23.190;2022-12-07T06:46:31;0.30;99.90
32215;DHT22;18708;53.124;23.190;2022-12-07T06:48:57;0.30;99.90
32215;DHT22;18708;53.124;23.190;2022-12-07T06:51:22;0.30;99.90
32215;DHT22;18708;53.124;23.190;2022-12-07T06:53:50;0.30;99.90
32215;DHT22;18708;53.124;23.190;2022-12-07T06:56:16;0.40;99.90
32215;DHT22;18708;53.124;23.190;2022-12-07T06:58:41;0.40;99.90
32215;DHT22;18708;53.124;23.190;2022-12-07T07:01:12;0.40;99.90
32215;DHT22;18708;53.124;23.190;2022-12-07T07:03:40;0.40;99.90
32215;DHT22;18708;53.124;23.190;2022-12-07T07:06:06;0.40;99.90
32215;DHT22;18708;53.124;23.190;2022-12-07T07:08:36;0.40;99.90
32215;DHT22;18708;53.124;23.190;2022-12-07T07:11:04;0.40;99.90
32215;DHT22;18708;53.124;23.190;2022-12-07T07:13:29;0.40;99.90
32215;DHT22;18708;53.124;23.190;2022-12-07T07:15:55;0.40;99.90
32215;DHT22;18708;53.124;23.190;2022-12-07T07:18:21;0.40;99.90
32215;DHT22;18708;53.124;23.190;2022-12-07T07:20:49;0.40;99.90
32215;DHT22;18708;53.124;23.190;2022-12-07T07:23:15;0.50;99.90
32215;DHT22;18708;53.124;23.190;2022-12-07T07:25:40;0.50;99.90
32215;DHT22;18708;53.124;23.190;2022-12-07T07:28:06;0.50;99.90
32215;DHT22;18708;53.124;23.190;2022-12-07T07:30:31;0.50;99.90
32215;DHT22;18708;53.124;23.190;2022-12-07T07:32:58;0.50;99.90
32215;DHT22;18708;53.124;23.190;2022-12-07T07:35:25;0.50;99.90
32215;DHT22;18708;53.124;23.190;2022-12-07T07:37:51;0.50;99.90
32215;DHT22;18708;53.124;23.190;2022-12-07T07:40:17;0.50;99.90
32215;DHT22;18708;53.124;23.190;2022-12-07T07:42:42;0.50;99.90
32215;DHT22;18708;53.124;23.190;2022-12-07T07:45:08;0.50;99.90
32215;DHT22;18708;53.124;23.190;2022-12-07T07:47:34;0.50;99.90
32215;DHT22;18708;53.124;23.190;2022-12-07T07:50:00;0.60;99.90
32215;DHT22;18708;53.124;23.190;2022-12-07T07:52:26;0.50;99.90
32215;DHT22;18708;53.124;23.190;2022-12-07T07:54:54;0.50;99.90
32215;DHT22;18708;53.124;23.190;2022-12-07T07:57:20;0.50;99.90
32215;DHT22;18708;53.124;23.190;2022-12-07T07:59:45;0.60;99.90
32215;DHT22;18708;53.124;23.190;2022-12-07T08:02:16;0.50;99.90
32215;DHT22;18708;53.124;23.190;2022-12-07T08:04:42;0.50;99.90
32215;DHT22;18708;53.124;23.190;2022-12-07T08:07:08;0.60;99.90
32215;DHT22;18708;53.124;23.190;2022-12-07T08:09:34;0.60;99.90
32215;DHT22;18708;53.124;23.190;2022-12-07T08:11:59;0.60;99.90
32215;DHT22;18708;53.124;23.190;2022-12-07T08:14:26;0.60;99.90
32215;DHT22;18708;53.124;23.190;2022-12-07T08:16:52;0.60;99.90
32215;DHT22;18708;53.124;23.190;2022-12-07T08:19:18;0.60;99.90
32215;DHT22;18708;53.124;23.190;2022-12-07T08:21:44;0.60;99.90
32215;DHT22;18708;53.124;23.190;2022-12-07T08:24:11;0.70;99.90
32215;DHT22;18708;53.124;23.190;2022-12-07T08:26:36;0.70;99.90
32215;DHT22;18708;53.124;23.190;2022-12-07T08:29:02;0.70;99.90
32215;DHT22;18708;53.124;23.190;2022-12-07T08:31:28;0.80;99.90
32215;DHT22;18708;53.124;23.190;2022-12-07T08:33:54;0.80;99.90
32215;DHT22;18708;53.124;23.190;2022-12-07T08:36:20;0.80;99.90
32215;DHT22;18708;53.124;23.190;2022-12-07T08:38:48;0.70;99.90
32215;DHT22;18708;53.124;23.190;2022-12-07T08:41:14;0.70;99.90
32215;DHT22;18708;53.124;23.190;2022-12-07T08:43:40;0.80;99.90
32215;DHT22;18708;53.124;23.190;2022-12-07T08:46:10;0.70;99.90
32215;DHT22;18708;53.124;23.190;2022-12-07T08:48:40;0.70;99.90
32215;DHT22;18708;53.124;23.190;2022-12-07T08:51:07;0.80;99.90
32215;DHT22;18708;53.124;23.190;2022-12-07T08:53:33;0.80;99.90
32215;DHT22;18708;53.124;23.190;2022-12-07T08:56:00;0.80;99.90
32215;DHT22;18708;53.124;23.190;2022-12-07T08:58:25;0.80;99.90
32215;DHT22;18708;53.124;23.190;2022-12-07T09:00:51;0.80;99.90
32215;DHT22;18708;53.124;23.190;2022-12-07T09:03:17;0.80;99.90
32215;DHT22;18708;53.124;23.190;2022-12-07T09:05:43;0.80;99.90
32215;DHT22;18708;53.124;23.190;2022-12-07T09:08:08;0.90;99.90
32215;DHT22;18708;53.124;23.190;2022-12-07T09:10:34;0.80;99.90
32215;DHT22;18708;53.124;23.190;2022-12-07T09:13:00;0.90;99.90
32215;DHT22;18708;53.124;23.190;2022-12-07T09:15:30;0.80;99.90
32215;DHT22;18708;53.124;23.190;2022-12-07T09:17:56;0.90;99.90
32215;DHT22;18708;53.124;23.190;2022-12-07T09:20:22;0.80;99.90
32215;DHT22;18708;53.124;23.190;2022-12-07T09:22:50;0.90;99.90
32215;DHT22;18708;53.124;23.190;2022-12-07T09:25:16;0.90;99.90
32215;DHT22;18708;53.124;23.190;2022-12-07T09:27:41;0.90;99.90
32215;DHT22;18708;53.124;23.190;2022-12-07T09:30:07;0.90;99.90
32215;DHT22;18708;53.124;23.190;2022-12-07T09:32:33;0.90;99.90
32215;DHT22;18708;53.124;23.190;2022-12-07T09:34:59;0.80;99.90
32215;DHT22;18708;53.124;23.190;2022-12-07T09:37:24;0.80;99.90
32215;DHT22;18708;53.124;23.190;2022-12-07T09:39:53;0.90;99.90
32215;DHT22;18708;53.124;23.190;2022-12-07T09:42:40;0.80;99.90
32215;DHT22;18708;53.124;23.190;2022-12-07T09:45:38;0.80;99.90
32215;DHT22;18708;53.124;23.190;2022-12-07T09:48:04;0.80;99.90
32215;DHT22;18708;53.124;23.190;2022-12-07T09:50:30;0.90;99.90
32215;DHT22;18708;53.124;23.190;2022-12-07T09:53:09;0.90;99.90
32215;DHT22;18708;53.124;23.190;2022-12-07T09:55:36;0.90;99.90
32215;DHT22;18708;53.124;23.190;2022-12-07T09:58:02;0.90;99.90
32215;DHT22;18708;53.124;23.190;2022-12-07T10:00:29;0.90;99.90
32215;DHT22;18708;53.124;23.190;2022-12-07T10:02:57;0.90;99.90
32215;DHT22;18708;53.124;23.190;2022-12-07T10:05:34;0.90;99.90
32215;DHT22;18708;53.124;23.190;2022-12-07T10:08:01;0.90;99.90
32215;DHT22;18708;53.124;23.190;2022-12-07T10:10:30;0.90;99.90
32215;DHT22;18708;53.124;23.190;2022-12-07T10:18:36;0.90;99.90
32215;DHT22;18708;53.124;23.190;2022-12-07T10:23:34;0.90;99.90
32215;DHT22;18708;53.124;23.190;2022-12-07T10:28:47;1.00;99.90
32215;DHT22;18708;53.124;23.190;2022-12-07T10:31:21;1.00;99.90
32215;DHT22;18708;53.124;23.190;2022-12-07T10:33:51;1.00;99.90
32215;DHT22;18708;53.124;23.190;2022-12-07T10:36:25;1.00;99.90
32215;DHT22;18708;53.124;23.190;2022-12-07T10:39:09;1.00;99.90
32215;DHT22;18708;53.124;23.190;2022-12-07T10:41:36;1.00;99.90
32215;DHT22;18708;53.124;23.190;2022-12-07T10:44:23;0.90;99.90
32215;DHT22;18708;53.124;23.190;2022-12-07T10:53:01;0.90;99.90
32215;DHT22;18708;53.124;23.190;2022-12-07T11:15:24;1.00;99.90
32215;DHT22;18708;53.124;23.190;2022-12-07T11:32:15;1.00;99.90
32215;DHT22;18708;53.124;23.190;2022-12-07T11:38:15;1.00;99.90
32215;DHT22;18708;53.124;23.190;2022-12-07T11:40:47;1.00;99.90
32215;DHT22;18708;53.124;23.190;2022-12-07T11:43:27;1.10;99.90
32215;DHT22;18708;53.124;23.190;2022-12-07T11:46:03;1.10;99.90
32215;DHT22;18708;53.124;23.190;2022-12-07T11:48:38;1.10;99.90
32215;DHT22;18708;53.124;23.190;2022-12-07T11:51:07;1.10;99.90
32215;DHT22;18708;53.124;23.190;2022-12-07T11:53:58;1.00;99.90
32215;DHT22;18708;53.124;23.190;2022-12-07T11:56:28;1.00;99.90
32215;DHT22;18708;53.124;23.190;2022-12-07T12:06:45;1.00;99.90
32215;DHT22;18708;53.124;23.190;2022-12-07T12:09:30;1.00;99.90
32215;DHT22;18708;53.124;23.190;2022-12-07T12:20:47;1.00;99.90
32215;DHT22;18708;53.124;23.190;2022-12-07T12:23:17;1.00;99.90
32215;DHT22;18708;53.124;23.190;2022-12-07T12:25:54;1.00;99.90
32215;DHT22;18708;53.124;23.190;2022-12-07T12:31:39;1.00;99.90
32215;DHT22;18708;53.124;23.190;2022-12-07T12:36:56;1.00;99.90
32215;DHT22;18708;53.124;23.190;2022-12-07T12:39:22;1.00;99.90
32215;DHT22;18708;53.124;23.190;2022-12-07T12:41:53;1.00;99.90
32215;DHT22;18708;53.124;23.190;2022-12-07T12:47:00;1.00;99.90
32215;DHT22;18708;53.124;23.190;2022-12-07T12:49:39;1.00;99.90
32215;DHT22;18708;53.124;23.190;2022-12-07T12:57:27;0.90;99.90
32215;DHT22;18708;53.124;23.190;2022-12-07T13:02:47;0.90;99.90
32215;DHT22;18708;53.124;23.190;2022-12-07T13:23:55;0.90;99.90
32215;DHT22;18708;53.124;23.190;2022-12-07T13:29:13;0.90;99.90
32215;DHT22;18708;53.124;23.190;2022-12-07T13:34:35;0.80;99.90
32215;DHT22;18708;53.124;23.190;2022-12-07T13:37:15;0.90;99.90
32215;DHT22;18708;53.124;23.190;2022-12-07T13:39:49;0.90;99.90
32215;DHT22;18708;53.124;23.190;2022-12-07T13:42:27;0.90;99.90
32215;DHT22;18708;53.124;23.190;2022-12-07T13:44:54;0.90;99.90
32215;DHT22;18708;53.124;23.190;2022-12-07T13:47:32;0.80;99.90
32215;DHT22;18708;53.124;23.190;2022-12-07T13:50:01;0.90;99.90
32215;DHT22;18708;53.124;23.190;2022-12-07T13:52:30;0.90;99.90
32215;DHT22;18708;53.124;23.190;2022-12-07T13:57:30;0.90;99.90
32215;DHT22;18708;53.124;23.190;2022-12-07T13:59:57;0.90;99.90
32215;DHT22;18708;53.124;23.190;2022-12-07T14:05:05;0.90;99.90
32215;DHT22;18708;53.124;23.190;2022-12-07T14:07:33;0.90;99.90
32215;DHT22;18708;53.124;23.190;2022-12-07T14:10:21;0.90;99.90
32215;DHT22;18708;53.124;23.190;2022-12-07T14:12:49;0.80;99.90
32215;DHT22;18708;53.124;23.190;2022-12-07T14:15:22;0.90;99.90
32215;DHT22;18708;53.124;23.190;2022-12-07T14:17:52;0.90;99.90
32215;DHT22;18708;53.124;23.190;2022-12-07T14:20:35;0.90;99.90
32215;DHT22;18708;53.124;23.190;2022-12-07T14:23:02;0.90;99.90
32215;DHT22;18708;53.124;23.190;2022-12-07T14:25:45;0.90;99.90
32215;DHT22;18708;53.124;23.190;2022-12-07T14:30:50;0.90;99.90
32215;DHT22;18708;53.124;23.190;2022-12-07T14:33:16;0.90;99.90
32215;DHT22;18708;53.124;23.190;2022-12-07T14:35:42;0.90;99.90
32215;DHT22;18708;53.124;23.190;2022-12-07T14:38:08;0.80;99.90
32215;DHT22;18708;53.124;23.190;2022-12-07T14:40:36;0.90;99.90
32215;DHT22;18708;53.124;23.190;2022-12-07T14:43:05;0.90;99.90
32215;DHT22;18708;53.124;23.190;2022-12-07T14:45:32;0.90;99.90
32215;DHT22;18708;53.124;23.190;2022-12-07T14:47:57;0.90;99.90
32215;DHT22;18708;53.124;23.190;2022-12-07T14:50:23;0.90;99.90
32215;DHT22;18708;53.124;23.190;2022-12-07T14:53:01;0.90;99.90
32215;DHT22;18708;53.124;23.190;2022-12-07T14:55:30;0.80;99.90
32215;DHT22;18708;53.124;23.190;2022-12-07T14:57:56;0.90;99.90
32215;DHT22;18708;53.124;23.190;2022-12-07T15:00:24;0.90;99.90
32215;DHT22;18708;53.124;23.190;2022-12-07T15:02:50;0.90;99.90
32215;DHT22;18708;53.124;23.190;2022-12-07T15:05:17;1.00;99.90
32215;DHT22;18708;53.124;23.190;2022-12-07T15:07:43;0.90;99.90
32215;DHT22;18708;53.124;23.190;2022-12-07T15:10:24;0.90;99.90
32215;DHT22;18708;53.124;23.190;2022-12-07T15:12:54;0.90;99.90
32215;DHT22;18708;53.124;23.190;2022-12-07T15:15:20;0.90;99.90
32215;DHT22;18708;53.124;23.190;2022-12-07T15:17:45;0.90;99.90
32215;DHT22;18708;53.124;23.190;2022-12-07T15:20:15;0.90;99.90
32215;DHT22;18708;53.124;23.190;2022-12-07T15:22:42;0.90;99.90
32215;DHT22;18708;53.124;23.190;2022-12-07T15:25:08;0.90;99.90
32215;DHT22;18708;53.124;23.190;2022-12-07T15:27:37;0.90;99.90
32215;DHT22;18708;53.124;23.190;2022-12-07T15:30:03;0.90;99.90
32215;DHT22;18708;53.124;23.190;2022-12-07T15:32:29;0.90;99.90
32215;DHT22;18708;53.124;23.190;2022-12-07T15:34:55;1.00;99.90
32215;DHT22;18708;53.124;23.190;2022-12-07T15:37:20;1.00;99.90
32215;DHT22;18708;53.124;23.190;2022-12-07T15:39:46;1.00;99.90
32215;DHT22;18708;53.124;23.190;2022-12-07T15:42:14;1.00;99.90
32215;DHT22;18708;53.124;23.190;2022-12-07T15:44:39;0.90;99.90
32215;DHT22;18708;53.124;23.190;2022-12-07T15:47:24;0.90;99.90
32215;DHT22;18708;53.124;23.190;2022-12-07T15:49:49;0.90;99.90
32215;DHT22;18708;53.124;23.190;2022-12-07T15:52:15;0.90;99.90
32215;DHT22;18708;53.124;23.190;2022-12-07T15:54:41;0.90;99.90
32215;DHT22;18708;53.124;23.190;2022-12-07T15:57:06;1.00;99.90
32215;DHT22;18708;53.124;23.190;2022-12-07T15:59:32;0.90;99.90
32215;DHT22;18708;53.124;23.190;2022-12-07T16:01:58;0.90;99.90
32215;DHT22;18708;53.124;23.190;2022-12-07T16:04:24;0.90;99.90
32215;DHT22;18708;53.124;23.190;2022-12-07T16:06:49;0.90;99.90
32215;DHT22;18708;53.124;23.190;2022-12-07T16:09:16;0.90;99.90
32215;DHT22;18708;53.124;23.190;2022-12-07T16:11:42;0.90;99.90
32215;DHT22;18708;53.124;23.190;2022-12-07T16:14:09;0.90;99.90
32215;DHT22;18708;53.124;23.190;2022-12-07T16:16:35;0.90;99.90
32215;DHT22;18708;53.124;23.190;2022-12-07T16:19:01;0.80;99.90
32215;DHT22;18708;53.124;23.190;2022-12-07T16:21:28;0.80;99.90
32215;DHT22;18708;53.124;23.190;2022-12-07T16:23:53;0.80;99.90
32215;DHT22;18708;53.124;23.190;2022-12-07T16:26:21;0.90;99.90
32215;DHT22;18708;53.124;23.190;2022-12-07T16:28:50;0.80;99.90
32215;DHT22;18708;53.124;23.190;2022-12-07T16:31:18;0.80;99.90
32215;DHT22;18708;53.124;23.190;2022-12-07T16:33:45;0.90;99.90
32215;DHT22;18708;53.124;23.190;2022-12-07T16:36:11;0.80;99.90
32215;DHT22;18708;53.124;23.190;2022-12-07T16:38:38;0.90;99.90
32215;DHT22;18708;53.124;23.190;2022-12-07T16:41:06;0.90;99.90
32215;DHT22;18708;53.124;23.190;2022-12-07T16:43:32;0.90;99.90
32215;DHT22;18708;53.124;23.190;2022-12-07T16:45:58;0.90;99.90
32215;DHT22;18708;53.124;23.190;2022-12-07T16:48:23;0.80;99.90
32215;DHT22;18708;53.124;23.190;2022-12-07T16:50:49;0.80;99.90
32215;DHT22;18708;53.124;23.190;2022-12-07T16:53:15;0.80;99.90
32215;DHT22;18708;53.124;23.190;2022-12-07T16:55:43;0.90;99.90
32215;DHT22;18708;53.124;23.190;2022-12-07T16:58:10;0.90;99.90
32215;DHT22;18708;53.124;23.190;2022-12-07T17:00:36;0.90;99.90
32215;DHT22;18708;53.124;23.190;2022-12-07T17:03:03;0.80;99.90
32215;DHT22;18708;53.124;23.190;2022-12-07T17:05:28;0.80;99.90
32215;DHT22;18708;53.124;23.190;2022-12-07T17:07:55;0.80;99.90
32215;DHT22;18708;53.124;23.190;2022-12-07T17:10:21;0.80;99.90
32215;DHT22;18708;53.124;23.190;2022-12-07T17:12:47;0.80;99.90
32215;DHT22;18708;53.124;23.190;2022-12-07T17:15:13;0.70;99.90
32215;DHT22;18708;53.124;23.190;2022-12-07T17:17:45;0.80;99.90
32215;DHT22;18708;53.124;23.190;2022-12-07T17:20:11;0.80;99.90
32215;DHT22;18708;53.124;23.190;2022-12-07T17:22:37;0.80;99.90
32215;DHT22;18708;53.124;23.190;2022-12-07T17:25:04;0.80;99.90
32215;DHT22;18708;53.124;23.190;2022-12-07T17:27:31;0.80;99.90
32215;DHT22;18708;53.124;23.190;2022-12-07T17:29:56;0.90;99.90
32215;DHT22;18708;53.124;23.190;2022-12-07T17:32:22;0.90;99.90
32215;DHT22;18708;53.124;23.190;2022-12-07T17:34:48;0.90;99.90
32215;DHT22;18708;53.124;23.190;2022-12-07T17:37:13;0.90;99.90
32215;DHT22;18708;53.124;23.190;2022-12-07T17:39:39;0.90;99.90
32215;DHT22;18708;53.124;23.190;2022-12-07T17:42:04;0.90;99.90
32215;DHT22;18708;53.124;23.190;2022-12-07T17:44:48;0.90;99.90
32215;DHT22;18708;53.124;23.190;2022-12-07T17:47:14;0.90;99.90
32215;DHT22;18708;53.124;23.190;2022-12-07T17:49:42;0.90;99.90
32215;DHT22;18708;53.124;23.190;2022-12-07T17:52:09;0.90;99.90
32215;DHT22;18708;53.124;23.190;2022-12-07T17:54:53;0.90;99.90
32215;DHT22;18708;53.124;23.190;2022-12-07T17:57:19;0.90;99.90
32215;DHT22;18708;53.124;23.190;2022-12-07T17:59:44;0.90;99.90
32215;DHT22;18708;53.124;23.190;2022-12-07T18:02:10;0.90;99.90
32215;DHT22;18708;53.124;23.190;2022-12-07T18:04:36;0.90;99.90
32215;DHT22;18708;53.124;23.190;2022-12-07T18:07:02;0.90;99.90
32215;DHT22;18708;53.124;23.190;2022-12-07T18:09:29;1.00;99.90
32215;DHT22;18708;53.124;23.190;2022-12-07T18:11:55;1.00;99.90
32215;DHT22;18708;53.124;23.190;2022-12-07T18:14:21;1.00;99.90